createdAt,value
2017-06-27T00:00:23.943Z,0
2017-06-27T00:01:23.970Z,0
2017-06-27T00:02:18.043Z,0
2017-06-27T00:03:12.089Z,0
2017-06-27T00:04:06.086Z,0
2017-06-27T00:05:00.168Z,0
2017-06-27T00:05:54.200Z,0
2017-06-27T00:06:54.198Z,0
2017-06-27T00:07:55.275Z,0
2017-06-27T00:08:55.310Z,0
2017-06-27T00:09:50.276Z,0
2017-06-27T00:10:50.332Z,0
2017-06-27T00:11:50.341Z,0
2017-06-27T00:12:56.386Z,0
2017-06-27T00:13:51.445Z,0
2017-06-27T00:14:46.471Z,0
2017-06-27T00:15:46.480Z,0
2017-06-27T00:16:34.515Z,0
2017-06-27T00:17:22.654Z,0
2017-06-27T00:18:11.555Z,0
2017-06-27T00:18:59.685Z,0
2017-06-27T00:19:47.703Z,0
2017-06-27T00:20:35.794Z,0
2017-06-27T00:21:24.793Z,0
2017-06-27T00:22:12.917Z,0
2017-06-27T00:23:00.902Z,0
2017-06-27T00:23:54.924Z,0
2017-06-27T00:24:49.000Z,0
2017-06-27T00:25:49.001Z,0
2017-06-27T00:26:49.021Z,0
2017-06-27T00:27:44.073Z,0
2017-06-27T00:28:38.040Z,0
2017-06-27T00:29:38.110Z,0
2017-06-27T00:30:27.189Z,0
2017-06-27T00:31:21.170Z,0
2017-06-27T00:32:15.281Z,0
2017-06-27T00:33:09.305Z,0
2017-06-27T00:34:04.336Z,0
2017-06-27T00:34:58.363Z,0
2017-06-27T00:35:58.333Z,0
2017-06-27T00:36:52.461Z,0
2017-06-27T00:37:52.437Z,0
2017-06-27T00:38:47.466Z,0
2017-06-27T00:39:47.535Z,0
2017-06-27T00:40:41.553Z,0
2017-06-27T00:41:41.685Z,0
2017-06-27T00:42:41.602Z,0
2017-06-27T00:43:41.657Z,0
2017-06-27T00:44:36.730Z,0
2017-06-27T00:45:36.696Z,0
2017-06-27T00:46:30.850Z,0
2017-06-27T00:47:25.771Z,0
2017-06-27T00:48:26.822Z,0
2017-06-27T00:49:27.108Z,0
2017-06-27T00:50:15.881Z,0
2017-06-27T00:51:04.947Z,0
2017-06-27T00:51:52.947Z,0
2017-06-27T00:52:40.984Z,0
2017-06-27T00:53:41.080Z,0
2017-06-27T00:54:36.047Z,0
2017-06-27T00:55:36.199Z,0
2017-06-27T00:56:31.248Z,0
2017-06-27T00:57:26.177Z,0
2017-06-27T00:58:32.749Z,0
2017-06-27T00:59:26.348Z,0
2017-06-27T01:00:26.275Z,0
2017-06-27T01:01:21.645Z,0
2017-06-27T01:02:15.366Z,0
2017-06-27T01:03:10.363Z,0
2017-06-27T01:04:10.404Z,0
2017-06-27T01:05:10.421Z,0
2017-06-27T01:06:10.860Z,0
2017-06-27T01:07:04.528Z,0
2017-06-27T01:08:04.613Z,0
2017-06-27T01:08:59.571Z,0
2017-06-27T01:09:54.632Z,0
2017-06-27T01:10:54.644Z,0
2017-06-27T01:11:49.932Z,0
2017-06-27T01:12:49.676Z,0
2017-06-27T01:13:49.803Z,0
2017-06-27T01:14:49.818Z,0
2017-06-27T01:15:43.928Z,0
2017-06-27T01:16:44.324Z,0
2017-06-27T01:17:31.919Z,0
2017-06-27T01:18:20.958Z,0
2017-06-27T01:19:21.985Z,0
2017-06-27T01:20:16.040Z,0
2017-06-27T01:21:16.066Z,0
2017-06-27T01:22:11.098Z,0
2017-06-27T01:23:06.093Z,0
2017-06-27T01:24:06.086Z,0
2017-06-27T01:25:01.185Z,0
2017-06-27T01:26:01.166Z,0
2017-06-27T01:27:01.301Z,0
2017-06-27T01:28:01.283Z,0
2017-06-27T01:28:55.297Z,0
2017-06-27T01:29:49.335Z,0
2017-06-27T01:30:49.351Z,0
2017-06-27T01:31:43.829Z,0
2017-06-27T01:32:32.491Z,0
2017-06-27T01:33:27.498Z,0
2017-06-27T01:34:27.492Z,0
2017-06-27T01:35:22.570Z,0
2017-06-27T01:36:17.602Z,0
2017-06-27T01:37:11.597Z,0
2017-06-27T01:38:05.685Z,0
2017-06-27T01:39:05.641Z,0
2017-06-27T01:39:54.734Z,0
2017-06-27T01:40:42.787Z,0
2017-06-27T01:41:42.773Z,0
2017-06-27T01:42:32.326Z,0
2017-06-27T01:43:25.890Z,0
2017-06-27T01:44:20.926Z,0
2017-06-27T01:45:08.996Z,0
2017-06-27T01:45:58.072Z,0
2017-06-27T01:46:58.018Z,0
2017-06-27T01:47:53.030Z,0
2017-06-27T01:48:47.129Z,0
2017-06-27T01:49:47.123Z,0
2017-06-27T01:50:47.171Z,0
2017-06-27T01:51:42.148Z,0
2017-06-27T01:52:37.244Z,0
2017-06-27T01:53:38.248Z,0
2017-06-27T01:54:38.288Z,0
2017-06-27T01:55:27.328Z,0
2017-06-27T01:56:22.385Z,0
2017-06-27T01:57:22.385Z,0
2017-06-27T01:58:17.481Z,0
2017-06-27T01:59:17.482Z,0
2017-06-27T02:00:11.508Z,0
2017-06-27T02:01:12.509Z,0
2017-06-27T02:02:06.549Z,0
2017-06-27T02:02:54.635Z,0
2017-06-27T02:03:48.717Z,0
2017-06-27T02:04:42.643Z,0
2017-06-27T02:05:42.806Z,0
2017-06-27T02:06:36.764Z,0
2017-06-27T02:07:36.807Z,0
2017-06-27T02:08:42.876Z,0
2017-06-27T02:09:37.860Z,0
2017-06-27T02:10:32.387Z,0
2017-06-27T02:11:31.906Z,0
2017-06-27T02:12:31.951Z,0
2017-06-27T02:13:27.029Z,0
2017-06-27T02:14:21.032Z,0
2017-06-27T02:15:21.035Z,4
2017-06-27T02:16:10.088Z,4
2017-06-27T02:16:58.162Z,4
2017-06-27T02:17:47.198Z,4
2017-06-27T02:18:35.199Z,0
2017-06-27T02:19:24.271Z,0
2017-06-27T02:20:19.295Z,0
2017-06-27T02:21:19.349Z,4
2017-06-27T02:22:13.382Z,4
2017-06-27T02:23:02.377Z,4
2017-06-27T02:23:50.534Z,4
2017-06-27T02:24:38.492Z,4
2017-06-27T02:25:32.562Z,4
2017-06-27T02:26:26.593Z,4
2017-06-27T02:27:21.713Z,4
2017-06-27T02:28:21.736Z,8
2017-06-27T02:29:09.646Z,4
2017-06-27T02:29:57.697Z,8
2017-06-27T02:30:45.794Z,8
2017-06-27T02:31:33.851Z,8
2017-06-27T02:32:21.846Z,12
2017-06-27T02:33:15.844Z,12
2017-06-27T02:34:04.961Z,12
2017-06-27T02:34:53.020Z,12
2017-06-27T02:35:48.051Z,16
2017-06-27T02:36:42.096Z,12
2017-06-27T02:37:43.080Z,20
2017-06-27T02:38:43.075Z,20
2017-06-27T02:39:43.542Z,20
2017-06-27T02:40:37.203Z,24
2017-06-27T02:41:31.191Z,24
2017-06-27T02:42:25.254Z,28
2017-06-27T02:43:25.328Z,32
2017-06-27T02:44:14.295Z,36
2017-06-27T02:45:02.697Z,40
2017-06-27T02:45:57.411Z,44
2017-06-27T02:46:52.433Z,48
2017-06-27T02:47:46.523Z,56
2017-06-27T02:48:52.529Z,64
2017-06-27T02:49:52.536Z,72
2017-06-27T02:50:47.610Z,80
2017-06-27T02:51:41.605Z,84
2017-06-27T02:52:35.600Z,96
2017-06-27T02:53:29.681Z,104
2017-06-27T02:54:35.712Z,116
2017-06-27T02:55:35.758Z,132
2017-06-27T02:56:35.817Z,144
2017-06-27T02:57:29.802Z,156
2017-06-27T02:58:18.846Z,172
2017-06-27T02:59:19.864Z,192
2017-06-27T03:00:13.935Z,212
2017-06-27T03:01:13.934Z,232
2017-06-27T03:02:08.933Z,256
2017-06-27T03:02:57.958Z,276
2017-06-27T03:03:47.079Z,300
2017-06-27T03:04:35.057Z,324
2017-06-27T03:05:23.135Z,352
2017-06-27T03:06:18.204Z,376
2017-06-27T03:07:24.178Z,424
2017-06-27T03:08:19.224Z,456
2017-06-27T03:09:13.245Z,488
2017-06-27T03:10:14.270Z,532
2017-06-27T03:11:09.604Z,568
2017-06-27T03:12:03.343Z,608
2017-06-27T03:13:04.444Z,652
2017-06-27T03:14:04.476Z,700
2017-06-27T03:14:59.465Z,748
2017-06-27T03:15:54.498Z,800
2017-06-27T03:16:54.560Z,852
2017-06-27T03:17:49.544Z,904
2017-06-27T03:18:37.663Z,952
2017-06-27T03:19:31.702Z,1004
2017-06-27T03:20:25.691Z,1064
2017-06-27T03:21:25.748Z,1124
2017-06-27T03:22:25.809Z,1192
2017-06-27T03:23:25.782Z,1248
2017-06-27T03:24:14.885Z,1296
2017-06-27T03:25:02.880Z,1344
2017-06-27T03:25:50.932Z,1388
2017-06-27T03:26:45.976Z,1436
2017-06-27T03:27:34.992Z,1484
2017-06-27T03:28:29.027Z,1548
2017-06-27T03:29:17.122Z,1608
2017-06-27T03:30:05.073Z,1668
2017-06-27T03:30:59.131Z,1744
2017-06-27T03:31:59.177Z,1832
2017-06-27T03:32:54.204Z,1916
2017-06-27T03:33:48.267Z,2008
2017-06-27T03:34:37.274Z,2088
2017-06-27T03:35:32.376Z,2172
2017-06-27T03:36:32.335Z,2260
2017-06-27T03:37:27.394Z,2340
2017-06-27T03:38:22.462Z,2424
2017-06-27T03:39:16.507Z,2496
2017-06-27T03:40:05.525Z,2564
2017-06-27T03:40:54.630Z,2640
2017-06-27T03:41:43.585Z,2720
2017-06-27T03:42:37.651Z,2800
2017-06-27T03:43:32.663Z,2892
2017-06-27T03:44:32.750Z,2992
2017-06-27T03:45:22.596Z,3068
2017-06-27T03:46:22.798Z,3188
2017-06-27T03:47:16.844Z,3284
2017-06-27T03:48:16.897Z,3396
2017-06-27T03:49:17.873Z,3532
2017-06-27T03:50:12.959Z,3636
2017-06-27T03:51:07.559Z,3764
2017-06-27T03:52:06.982Z,3908
2017-06-27T03:53:01.017Z,4016
2017-06-27T03:53:56.088Z,4124
2017-06-27T03:54:56.089Z,4208
2017-06-27T03:55:51.145Z,4272
2017-06-27T03:56:46.189Z,4304
2017-06-27T03:57:34.247Z,4320
2017-06-27T03:58:28.801Z,4288
2017-06-27T03:59:17.274Z,4264
2017-06-27T04:00:11.393Z,4240
2017-06-27T04:01:05.758Z,4248
2017-06-27T04:02:06.265Z,4288
2017-06-27T04:03:00.437Z,4320
2017-06-27T04:03:54.476Z,4384
2017-06-27T04:04:43.545Z,4420
2017-06-27T04:05:38.562Z,4476
2017-06-27T04:06:38.597Z,4520
2017-06-27T04:07:33.669Z,4540
2017-06-27T04:08:28.729Z,4564
2017-06-27T04:09:17.677Z,4592
2017-06-27T04:10:17.752Z,4632
2017-06-27T04:11:07.332Z,4692
2017-06-27T04:12:01.820Z,4784
2017-06-27T04:12:50.863Z,4904
2017-06-27T04:13:38.928Z,5040
2017-06-27T04:14:33.999Z,5232
2017-06-27T04:15:34.974Z,5364
2017-06-27T04:16:29.078Z,5448
2017-06-27T04:17:23.044Z,5464
2017-06-27T04:18:23.165Z,5504
2017-06-27T04:19:23.191Z,5520
2017-06-27T04:20:11.190Z,5600
2017-06-27T04:20:59.279Z,5680
2017-06-27T04:21:53.283Z,5792
2017-06-27T04:22:42.356Z,5900
2017-06-27T04:23:37.323Z,6024
2017-06-27T04:24:26.379Z,6160
2017-06-27T04:25:20.391Z,6312
2017-06-27T04:26:20.492Z,6496
2017-06-27T04:27:09.462Z,6656
2017-06-27T04:28:09.523Z,6872
2017-06-27T04:29:09.562Z,7092
2017-06-27T04:30:04.589Z,7300
2017-06-27T04:31:05.198Z,7520
2017-06-27T04:31:59.700Z,7680
2017-06-27T04:32:54.689Z,7848
2017-06-27T04:33:54.766Z,8024
2017-06-27T04:34:48.841Z,8184
2017-06-27T04:35:48.887Z,8624
2017-06-27T04:36:48.888Z,8584
2017-06-27T04:37:42.898Z,8548
2017-06-27T04:38:43.956Z,8800
2017-06-27T04:39:33.012Z,8888
2017-06-27T04:40:27.007Z,8692
2017-06-27T04:41:22.034Z,8796
2017-06-27T04:42:22.071Z,9132
2017-06-27T04:43:17.096Z,9576
2017-06-27T04:44:12.180Z,10788
2017-06-27T04:45:12.152Z,9420
2017-06-27T04:46:07.841Z,9332
2017-06-27T04:47:02.311Z,9412
2017-06-27T04:47:56.350Z,9560
2017-06-27T04:48:50.375Z,9676
2017-06-27T04:49:44.355Z,9836
2017-06-27T04:50:44.416Z,9996
2017-06-27T04:51:38.547Z,10148
2017-06-27T04:52:32.525Z,10220
2017-06-27T04:53:26.523Z,10280
2017-06-27T04:54:21.710Z,10300
2017-06-27T04:55:21.594Z,10368
2017-06-27T04:56:16.701Z,10460
2017-06-27T04:57:11.733Z,10636
2017-06-27T04:58:05.698Z,11312
2017-06-27T04:59:05.828Z,11772
2017-06-27T05:00:00.855Z,11380
2017-06-27T05:00:54.916Z,12800
2017-06-27T05:01:54.881Z,12296
2017-06-27T05:02:48.958Z,12696
2017-06-27T05:03:42.982Z,13476
2017-06-27T05:04:37.034Z,13188
2017-06-27T05:05:31.045Z,12712
2017-06-27T05:06:26.666Z,12972
2017-06-27T05:07:21.180Z,13244
2017-06-27T05:08:15.356Z,13060
2017-06-27T05:09:04.276Z,13220
2017-06-27T05:09:59.244Z,13324
2017-06-27T05:10:54.358Z,14368
2017-06-27T05:11:48.405Z,14168
2017-06-27T05:12:48.373Z,14520
2017-06-27T05:13:43.496Z,15680
2017-06-27T05:14:32.520Z,18144
2017-06-27T05:15:21.546Z,18528
2017-06-27T05:16:16.575Z,19520
2017-06-27T05:17:17.574Z,17024
2017-06-27T05:18:12.665Z,16864
2017-06-27T05:19:01.712Z,19104
2017-06-27T05:19:55.779Z,19872
2017-06-27T05:20:49.749Z,20640
2017-06-27T05:21:44.858Z,24576
2017-06-27T05:22:44.887Z,28960
2017-06-27T05:23:44.935Z,22080
2017-06-27T05:24:45.075Z,22016
2017-06-27T05:25:40.019Z,29760
2017-06-27T05:26:35.050Z,21024
2017-06-27T05:27:29.080Z,22336
2017-06-27T05:28:18.112Z,26368
2017-06-27T05:29:06.184Z,31200
2017-06-27T05:30:06.200Z,32288
2017-06-27T05:31:01.226Z,23872
2017-06-27T05:31:56.356Z,27264
2017-06-27T05:32:56.332Z,30560
2017-06-27T05:33:51.369Z,25664
2017-06-27T05:34:46.456Z,22240
2017-06-27T05:35:46.475Z,21056
2017-06-27T05:36:41.495Z,25216
2017-06-27T05:37:41.553Z,27008
2017-06-27T05:38:35.569Z,22496
2017-06-27T05:39:29.599Z,27808
2017-06-27T05:40:18.692Z,28128
2017-06-27T05:41:14.526Z,20736
2017-06-27T05:42:13.755Z,23040
2017-06-27T05:43:08.845Z,39104
2017-06-27T05:43:57.891Z,38528
2017-06-27T05:44:51.896Z,32992
2017-06-27T05:45:52.975Z,41440
2017-06-27T05:46:53.996Z,33280
2017-06-27T05:47:43.011Z,23680
2017-06-27T05:48:38.123Z,25824
2017-06-27T05:49:32.142Z,24544
2017-06-27T05:50:26.737Z,32192
2017-06-27T05:51:21.256Z,34848
2017-06-27T05:52:10.321Z,32736
2017-06-27T05:53:05.282Z,26944
2017-06-27T05:53:59.355Z,24544
2017-06-27T05:54:54.422Z,22080
2017-06-27T05:55:54.473Z,28320
2017-06-27T05:56:54.479Z,30336
2017-06-27T05:57:54.569Z,25824
2017-06-27T05:58:54.591Z,24480
2017-06-27T05:59:54.674Z,22144
2017-06-27T06:00:54.754Z,24864
2017-06-27T06:01:54.756Z,27680
2017-06-27T06:02:48.862Z,24800
2017-06-27T06:03:43.770Z,25280
2017-06-27T06:04:37.871Z,24608
2017-06-27T06:05:37.892Z,21024
2017-06-27T06:06:31.965Z,20224
2017-06-27T06:07:25.993Z,20064
2017-06-27T06:08:26.056Z,20256
2017-06-27T06:09:20.153Z,20928
2017-06-27T06:10:20.135Z,20864
2017-06-27T06:11:14.702Z,20992
2017-06-27T06:12:14.185Z,21184
2017-06-27T06:13:08.291Z,21056
2017-06-27T06:14:09.278Z,20192
2017-06-27T06:15:03.460Z,19872
2017-06-27T06:15:51.441Z,19808
2017-06-27T06:16:46.482Z,20192
2017-06-27T06:17:47.466Z,21600
2017-06-27T06:18:42.560Z,23232
2017-06-27T06:19:37.588Z,21568
2017-06-27T06:20:32.608Z,22368
2017-06-27T06:21:21.679Z,23584
2017-06-27T06:22:16.727Z,25728
2017-06-27T06:23:16.780Z,22720
2017-06-27T06:24:10.788Z,23264
2017-06-27T06:25:10.875Z,24192
2017-06-27T06:26:06.472Z,24480
2017-06-27T06:27:05.943Z,27552
2017-06-27T06:27:54.968Z,28736
2017-06-27T06:28:44.045Z,33792
2017-06-27T06:29:33.050Z,32256
2017-06-27T06:30:27.128Z,27744
2017-06-27T06:31:16.748Z,33408
2017-06-27T06:32:11.189Z,26720
2017-06-27T06:33:11.376Z,28800
2017-06-27T06:34:05.325Z,28000
2017-06-27T06:34:59.389Z,32256
2017-06-27T06:35:59.401Z,28544
2017-06-27T06:36:53.423Z,27648
2017-06-27T06:37:47.498Z,28032
2017-06-27T06:38:47.515Z,30144
2017-06-27T06:39:41.599Z,31712
2017-06-27T06:40:42.599Z,37344
2017-06-27T06:41:37.643Z,40640
2017-06-27T06:42:26.746Z,38528
2017-06-27T06:43:21.901Z,44704
2017-06-27T06:44:16.187Z,39008
2017-06-27T06:45:10.893Z,40096
2017-06-27T06:46:11.501Z,39808
2017-06-27T06:47:04.939Z,41824
2017-06-27T06:48:05.038Z,46400
2017-06-27T06:48:54.056Z,36832
2017-06-27T06:49:48.088Z,41312
2017-06-27T06:50:48.133Z,46720
2017-06-27T06:51:37.361Z,37312
2017-06-27T06:52:37.248Z,33760
2017-06-27T06:53:37.315Z,28480
2017-06-27T06:54:26.379Z,27680
2017-06-27T06:55:27.401Z,27904
2017-06-27T06:56:21.845Z,34112
2017-06-27T06:57:10.490Z,33312
2017-06-27T06:58:04.568Z,29152
2017-06-27T06:59:04.635Z,28256
2017-06-27T06:59:58.642Z,28672
2017-06-27T07:00:58.691Z,27040
2017-06-27T07:01:52.745Z,27968
2017-06-27T07:02:52.782Z,32448
2017-06-27T07:03:47.804Z,30304
2017-06-27T07:04:41.921Z,29248
2017-06-27T07:05:41.936Z,29472
2017-06-27T07:06:37.012Z,29472
2017-06-27T07:07:31.034Z,29472
2017-06-27T07:08:25.082Z,29984
2017-06-27T07:09:25.107Z,29952
2017-06-27T07:10:25.404Z,29184
2017-06-27T07:11:19.384Z,29088
2017-06-27T07:12:13.294Z,29024
2017-06-27T07:13:07.347Z,28064
2017-06-27T07:14:08.418Z,27424
2017-06-27T07:15:03.431Z,25728
2017-06-27T07:15:57.486Z,25824
2017-06-27T07:16:57.508Z,28896
2017-06-27T07:17:51.583Z,26144
2017-06-27T07:18:45.572Z,25664
2017-06-27T07:19:46.726Z,26048
2017-06-27T07:20:46.730Z,26784
2017-06-27T07:21:41.801Z,29984
2017-06-27T07:22:35.811Z,30944
2017-06-27T07:23:30.873Z,33056
2017-06-27T07:24:24.902Z,31648
2017-06-27T07:25:24.935Z,29952
2017-06-27T07:26:19.463Z,31744
2017-06-27T07:27:20.330Z,32096
2017-06-27T07:28:20.311Z,28576
2017-06-27T07:29:14.117Z,27328
2017-06-27T07:30:14.206Z,28288
2017-06-27T07:31:08.784Z,27424
2017-06-27T07:32:03.305Z,32320
2017-06-27T07:33:03.560Z,31616
2017-06-27T07:33:57.389Z,30816
2017-06-27T07:34:52.394Z,32160
2017-06-27T07:35:41.487Z,34560
2017-06-27T07:36:35.477Z,42016
2017-06-27T07:37:35.573Z,38880
2017-06-27T07:38:31.167Z,41408
2017-06-27T07:39:19.669Z,44960
2017-06-27T07:40:14.682Z,50368
2017-06-27T07:41:02.824Z,51392
2017-06-27T07:41:56.759Z,46560
2017-06-27T07:42:50.848Z,40032
2017-06-27T07:43:40.753Z,40192
2017-06-27T07:44:40.028Z,39808
2017-06-27T07:45:34.077Z,48928
2017-06-27T07:46:34.527Z,38880
2017-06-27T07:47:28.094Z,39616
2017-06-27T07:48:22.182Z,33888
2017-06-27T07:49:11.380Z,31808
2017-06-27T07:50:05.280Z,32352
2017-06-27T07:51:05.279Z,30624
2017-06-27T07:52:05.351Z,36512
2017-06-27T07:53:00.425Z,28640
2017-06-27T07:54:00.470Z,27552
2017-06-27T07:54:55.523Z,27168
2017-06-27T07:55:49.557Z,27008
2017-06-27T07:56:49.836Z,27424
2017-06-27T07:57:38.685Z,27936
2017-06-27T07:58:33.680Z,27520
2017-06-27T07:59:33.751Z,26720
2017-06-27T08:00:27.797Z,26688
2017-06-27T08:01:22.814Z,27488
2017-06-27T08:02:17.940Z,28320
2017-06-27T08:03:12.007Z,28864
2017-06-27T08:04:07.007Z,29632
2017-06-27T08:04:56.103Z,30656
2017-06-27T08:05:44.133Z,30912
2017-06-27T08:06:45.174Z,31680
2017-06-27T08:07:39.252Z,32992
2017-06-27T08:08:33.281Z,32544
2017-06-27T08:09:21.288Z,36960
2017-06-27T08:10:15.360Z,35424
2017-06-27T08:11:10.825Z,34592
2017-06-27T08:12:04.480Z,35072
2017-06-27T08:12:59.514Z,35712
2017-06-27T08:13:47.566Z,36256
2017-06-27T08:14:36.612Z,38080
2017-06-27T08:15:31.707Z,40928
2017-06-27T08:16:20.975Z,43168
2017-06-27T08:17:15.792Z,43936
2017-06-27T08:18:04.807Z,41312
2017-06-27T08:18:59.865Z,39776
2017-06-27T08:19:53.950Z,34944
2017-06-27T08:20:48.901Z,34080
2017-06-27T08:21:37.016Z,33856
2017-06-27T08:22:31.061Z,33856
2017-06-27T08:23:31.127Z,34624
2017-06-27T08:24:25.170Z,35680
2017-06-27T08:25:20.242Z,36960
2017-06-27T08:26:15.778Z,36928
2017-06-27T08:27:04.612Z,36960
2017-06-27T08:27:58.366Z,37472
2017-06-27T08:28:58.432Z,38176
2017-06-27T08:29:52.453Z,39392
2017-06-27T08:30:47.505Z,43552
2017-06-27T08:31:41.576Z,38880
2017-06-27T08:32:35.655Z,38624
2017-06-27T08:33:35.711Z,39104
2017-06-27T08:34:30.730Z,38944
2017-06-27T08:35:18.791Z,38272
2017-06-27T08:36:19.343Z,38080
2017-06-27T08:37:13.864Z,38464
2017-06-27T08:38:07.997Z,39264
2017-06-27T08:39:07.978Z,39680
2017-06-27T08:39:57.008Z,39904
2017-06-27T08:40:57.066Z,40672
2017-06-27T08:41:51.505Z,42272
2017-06-27T08:42:39.193Z,41504
2017-06-27T08:43:34.644Z,45376
2017-06-27T08:44:29.250Z,43872
2017-06-27T08:45:23.316Z,43744
2017-06-27T08:46:18.916Z,44224
2017-06-27T08:47:13.459Z,48640
2017-06-27T08:48:07.477Z,48416
2017-06-27T08:49:01.763Z,52544
2017-06-27T08:49:56.971Z,50592
2017-06-27T08:50:56.715Z,48992
2017-06-27T08:51:51.746Z,46592
2017-06-27T08:52:45.809Z,49184
2017-06-27T08:53:45.741Z,47392
2017-06-27T08:54:40.883Z,55200
2017-06-27T08:55:29.867Z,60992
2017-06-27T08:56:30.254Z,53952
2017-06-27T08:57:24.451Z,44800
2017-06-27T08:58:24.044Z,44704
2017-06-27T08:59:18.068Z,43808
2017-06-27T09:00:07.477Z,43552
2017-06-27T09:01:07.231Z,44000
2017-06-27T09:02:02.539Z,44768
2017-06-27T09:02:56.587Z,43232
2017-06-27T09:03:44.534Z,41312
2017-06-27T09:04:33.662Z,40096
2017-06-27T09:05:27.761Z,38688
2017-06-27T09:06:21.927Z,37856
2017-06-27T09:07:16.940Z,36992
2017-06-27T09:08:11.057Z,36000
2017-06-27T09:09:05.715Z,35136
2017-06-27T09:10:00.234Z,34496
2017-06-27T09:10:49.030Z,34016
2017-06-27T09:11:36.836Z,33792
2017-06-27T09:12:31.971Z,34240
2017-06-27T09:13:31.967Z,36064
2017-06-27T09:14:27.030Z,34112
2017-06-27T09:15:21.126Z,33504
2017-06-27T09:16:21.159Z,33472
2017-06-27T09:17:15.176Z,33664
2017-06-27T09:18:15.245Z,33952
2017-06-27T09:19:04.367Z,34112
2017-06-27T09:19:58.407Z,34176
2017-06-27T09:20:58.371Z,34272
2017-06-27T09:21:47.461Z,34144
2017-06-27T09:22:42.520Z,33888
2017-06-27T09:23:42.775Z,33408
2017-06-27T09:24:31.588Z,32928
2017-06-27T09:25:25.640Z,32512
2017-06-27T09:26:25.674Z,32160
2017-06-27T09:27:19.792Z,32000
2017-06-27T09:28:19.784Z,32160
2017-06-27T09:29:13.845Z,32544
2017-06-27T09:30:14.883Z,32480
2017-06-27T09:31:15.513Z,32736
2017-06-27T09:32:10.241Z,33216
2017-06-27T09:33:04.098Z,34368
2017-06-27T09:33:59.077Z,34016
2017-06-27T09:34:53.221Z,33888
2017-06-27T09:35:42.196Z,33312
2017-06-27T09:36:37.239Z,33344
2017-06-27T09:37:26.336Z,33152
2017-06-27T09:38:26.364Z,33632
2017-06-27T09:39:20.515Z,33760
2017-06-27T09:40:20.493Z,33984
2017-06-27T09:41:15.017Z,34176
2017-06-27T09:42:03.580Z,34560
2017-06-27T09:43:03.578Z,34976
2017-06-27T09:43:57.686Z,35488
2017-06-27T09:44:46.752Z,35808
2017-06-27T09:45:40.776Z,36832
2017-06-27T09:46:35.228Z,36384
2017-06-27T09:47:28.898Z,36192
2017-06-27T09:48:22.959Z,36032
2017-06-27T09:49:17.063Z,35808
2017-06-27T09:50:11.072Z,35552
2017-06-27T09:51:05.565Z,35424
2017-06-27T09:51:59.185Z,35328
2017-06-27T09:52:54.185Z,35264
2017-06-27T09:53:48.285Z,35200
2017-06-27T09:54:48.278Z,35712
2017-06-27T09:55:43.758Z,36160
2017-06-27T09:56:43.353Z,36576
2017-06-27T09:57:43.482Z,36896
2017-06-27T09:58:37.470Z,37120
2017-06-27T09:59:32.606Z,37120
2017-06-27T10:00:26.638Z,36832
2017-06-27T10:01:21.121Z,36352
2017-06-27T10:02:14.753Z,36000
2017-06-27T10:03:03.788Z,35616
2017-06-27T10:03:58.814Z,35168
2017-06-27T10:04:52.910Z,34784
2017-06-27T10:05:47.953Z,34752
2017-06-27T10:06:42.956Z,34752
2017-06-27T10:07:31.060Z,34720
2017-06-27T10:08:26.118Z,34848
2017-06-27T10:09:27.617Z,34912
2017-06-27T10:10:22.166Z,35456
2017-06-27T10:11:17.767Z,35840
2017-06-27T10:12:11.286Z,36544
2017-06-27T10:13:11.591Z,37600
2017-06-27T10:13:59.374Z,38400
2017-06-27T10:15:00.464Z,39424
2017-06-27T10:15:48.485Z,40640
2017-06-27T10:16:37.541Z,40704
2017-06-27T10:17:27.027Z,41344
2017-06-27T10:18:21.718Z,41792
2017-06-27T10:19:10.233Z,42496
2017-06-27T10:19:58.775Z,42912
2017-06-27T10:20:52.787Z,43552
2017-06-27T10:21:47.230Z,44032
2017-06-27T10:22:35.954Z,44224
2017-06-27T10:23:36.341Z,45376
2017-06-27T10:24:30.039Z,45824
2017-06-27T10:25:19.073Z,47296
2017-06-27T10:26:13.719Z,47520
2017-06-27T10:27:01.230Z,48224
2017-06-27T10:27:55.261Z,52704
2017-06-27T10:28:49.339Z,60832
2017-06-27T10:29:43.405Z,51296
2017-06-27T10:30:38.422Z,48352
2017-06-27T10:31:27.488Z,72704
2017-06-27T10:32:16.515Z,48192
2017-06-27T10:33:10.583Z,44608
2017-06-27T10:34:05.608Z,43872
2017-06-27T10:34:59.709Z,43776
2017-06-27T10:35:53.768Z,44864
2017-06-27T10:36:47.743Z,48800
2017-06-27T10:37:41.956Z,48384
2017-06-27T10:38:35.916Z,48320
2017-06-27T10:39:31.022Z,47360
2017-06-27T10:40:31.462Z,42592
2017-06-27T10:41:31.077Z,41536
2017-06-27T10:42:31.147Z,42336
2017-06-27T10:43:26.180Z,40576
2017-06-27T10:44:14.321Z,39360
2017-06-27T10:45:03.315Z,39104
2017-06-27T10:45:58.464Z,38400
2017-06-27T10:46:52.825Z,38592
2017-06-27T10:47:53.504Z,38144
2017-06-27T10:48:48.517Z,37888
2017-06-27T10:49:42.596Z,37088
2017-06-27T10:50:36.614Z,36384
2017-06-27T10:51:37.198Z,36032
2017-06-27T10:52:36.875Z,35648
2017-06-27T10:53:36.842Z,35456
2017-06-27T10:54:36.921Z,35072
2017-06-27T10:55:36.903Z,34784
2017-06-27T10:56:36.931Z,34048
2017-06-27T10:57:37.282Z,33760
2017-06-27T10:58:31.496Z,33568
2017-06-27T10:59:32.301Z,33792
2017-06-27T11:00:27.212Z,33888
2017-06-27T11:01:22.896Z,33760
2017-06-27T11:02:17.787Z,34080
2017-06-27T11:03:11.287Z,34016
2017-06-27T11:04:06.411Z,34080
2017-06-27T11:05:06.410Z,33952
2017-06-27T11:06:01.990Z,33824
2017-06-27T11:06:56.925Z,33984
2017-06-27T11:07:45.542Z,34048
2017-06-27T11:08:39.607Z,34080
2017-06-27T11:09:34.657Z,33792
2017-06-27T11:10:23.702Z,33824
2017-06-27T11:11:19.336Z,33664
2017-06-27T11:12:07.011Z,33376
2017-06-27T11:13:00.922Z,33440
2017-06-27T11:13:54.971Z,33248
2017-06-27T11:14:48.990Z,33536
2017-06-27T11:15:49.095Z,33440
2017-06-27T11:16:44.413Z,33952
2017-06-27T11:17:38.716Z,34208
2017-06-27T11:18:38.188Z,34592
2017-06-27T11:19:33.270Z,34880
2017-06-27T11:20:28.297Z,35328
2017-06-27T11:21:23.559Z,35744
2017-06-27T11:22:18.237Z,36128
2017-06-27T11:23:12.474Z,37440
2017-06-27T11:24:06.519Z,38048
2017-06-27T11:25:00.583Z,38976
2017-06-27T11:25:54.608Z,39904
2017-06-27T11:26:43.694Z,40960
2017-06-27T11:27:32.754Z,42048
2017-06-27T11:28:32.766Z,42816
2017-06-27T11:29:26.828Z,41952
2017-06-27T11:30:20.875Z,42112
2017-06-27T11:31:21.457Z,42592
2017-06-27T11:32:15.989Z,43488
2017-06-27T11:33:10.057Z,44128
2017-06-27T11:34:04.126Z,45536
2017-06-27T11:34:58.163Z,45184
2017-06-27T11:35:47.210Z,43424
2017-06-27T11:36:35.261Z,43008
2017-06-27T11:37:29.361Z,42656
2017-06-27T11:38:23.404Z,42144
2017-06-27T11:39:17.452Z,42016
2017-06-27T11:40:11.521Z,41408
2017-06-27T11:41:05.992Z,41024
2017-06-27T11:41:59.561Z,40416
2017-06-27T11:42:59.636Z,40256
2017-06-27T11:43:59.751Z,39296
2017-06-27T11:44:59.996Z,39488
2017-06-27T11:45:53.806Z,38912
2017-06-27T11:46:42.864Z,39488
2017-06-27T11:47:42.897Z,39040
2017-06-27T11:48:36.955Z,39328
2017-06-27T11:49:31.306Z,39168
2017-06-27T11:50:31.490Z,38912
2017-06-27T11:51:25.256Z,39104
2017-06-27T11:52:25.176Z,38816
2017-06-27T11:53:14.252Z,38592
2017-06-27T11:54:03.305Z,38560
2017-06-27T11:54:51.342Z,38560
2017-06-27T11:55:46.405Z,38592
2017-06-27T11:56:40.452Z,38560
2017-06-27T11:57:28.509Z,38528
2017-06-27T11:58:22.574Z,38400
2017-06-27T11:59:11.641Z,38272
2017-06-27T12:00:01.123Z,38080
2017-06-27T12:00:55.693Z,38432
2017-06-27T12:01:50.797Z,38368
2017-06-27T12:02:44.863Z,38848
2017-06-27T12:03:39.883Z,38720
2017-06-27T12:04:34.969Z,39168
2017-06-27T12:05:30.265Z,39360
2017-06-27T12:06:24.994Z,39488
2017-06-27T12:07:19.105Z,40064
2017-06-27T12:08:14.190Z,40672
2017-06-27T12:09:03.189Z,41056
2017-06-27T12:09:57.422Z,41120
2017-06-27T12:10:51.364Z,40320
2017-06-27T12:11:45.395Z,38656
2017-06-27T12:12:39.461Z,39712
2017-06-27T12:13:40.462Z,39040
2017-06-27T12:14:35.541Z,39008